sensor_id;sensor_type;location;lat;lon;timestamp;temperature;humidity
23697;DHT22;48864;50.820;4.400;2022-10-14T00:02:02;15.00;99.90
23697;DHT22;48864;50.820;4.400;2022-10-14T00:04:28;15.00;99.90
23697;DHT22;48864;50.820;4.400;2022-10-14T00:06:54;15.00;99.90
23697;DHT22;48864;50.820;4.400;2022-10-14T00:09:20;15.10;99.90
23697;DHT22;48864;50.820;4.400;2022-10-14T00:11:45;14.90;99.90
23697;DHT22;48864;50.820;4.400;2022-10-14T00:14:13;14.70;99.90
23697;DHT22;48864;50.820;4.400;2022-10-14T00:16:41;14.90;99.90
23697;DHT22;48864;50.820;4.400;2022-10-14T00:19:07;14.80;99.90
23697;DHT22;48864;50.820;4.400;2022-10-14T00:21:33;14.70;99.90
23697;DHT22;48864;50.820;4.400;2022-10-14T00:23:59;14.80;99.90
23697;DHT22;48864;50.820;4.400;2022-10-14T00:26:31;14.80;99.90
23697;DHT22;48864;50.820;4.400;2022-10-14T00:28:59;14.70;99.90
23697;DHT22;48864;50.820;4.400;2022-10-14T00:31:25;14.80;99.90
23697;DHT22;48864;50.820;4.400;2022-10-14T00:33:51;14.80;99.90
23697;DHT22;48864;50.820;4.400;2022-10-14T00:36:18;14.80;99.90
23697;DHT22;48864;50.820;4.400;2022-10-14T00:38:44;14.80;99.90
23697;DHT22;48864;50.820;4.400;2022-10-14T00:41:31;14.80;99.90
23697;DHT22;48864;50.820;4.400;2022-10-14T00:44:55;14.90;99.90
23697;DHT22;48864;50.820;4.400;2022-10-14T00:46:52;15.00;99.90
23697;DHT22;48864;50.820;4.400;2022-10-14T00:49:22;15.10;99.90
23697;DHT22;48864;50.820;4.400;2022-10-14T00:51:53;15.00;99.90
23697;DHT22;48864;50.820;4.400;2022-10-14T00:54:23;14.80;99.90
23697;DHT22;48864;50.820;4.400;2022-10-14T00:56:50;14.80;99.90
23697;DHT22;48864;50.820;4.400;2022-10-14T01:01:53;15.00;99.90
23697;DHT22;48864;50.820;4.400;2022-10-14T01:04:19;15.10;99.90
23697;DHT22;48864;50.820;4.400;2022-10-14T01:07:09;15.10;99.90
23697;DHT22;48864;50.820;4.400;2022-10-14T01:09:52;15.00;99.90
23697;DHT22;48864;50.820;4.400;2022-10-14T01:12:47;14.90;99.90
23697;DHT22;48864;50.820;4.400;2022-10-14T01:20:37;15.00;99.90
23697;DHT22;48864;50.820;4.400;2022-10-14T01:25:56;14.70;99.90
23697;DHT22;48864;50.820;4.400;2022-10-14T01:31:21;14.70;99.90
23697;DHT22;48864;50.820;4.400;2022-10-14T01:33:51;14.70;99.90
23697;DHT22;48864;50.820;4.400;2022-10-14T01:39:00;14.80;99.90
23697;DHT22;48864;50.820;4.400;2022-10-14T01:41:35;14.60;99.90
23697;DHT22;48864;50.820;4.400;2022-10-14T01:44:06;14.70;99.90
23697;DHT22;48864;50.820;4.400;2022-10-14T01:46:34;14.80;99.90
23697;DHT22;48864;50.820;4.400;2022-10-14T01:49:04;14.80;99.90
23697;DHT22;48864;50.820;4.400;2022-10-14T01:51:46;14.80;99.90
23697;DHT22;48864;50.820;4.400;2022-10-14T01:54:16;14.80;99.90
23697;DHT22;48864;50.820;4.400;2022-10-14T01:56:47;14.90;99.90
23697;DHT22;48864;50.820;4.400;2022-10-14T01:59:16;14.90;99.90
23697;DHT22;48864;50.820;4.400;2022-10-14T02:01:42;14.90;99.90
23697;DHT22;48864;50.820;4.400;2022-10-14T02:04:18;14.90;99.90
23697;DHT22;48864;50.820;4.400;2022-10-14T02:06:53;15.00;99.90
23697;DHT22;48864;50.820;4.400;2022-10-14T02:18:10;14.90;99.90
23697;DHT22;48864;50.820;4.400;2022-10-14T02:21:02;14.90;99.90
23697;DHT22;48864;50.820;4.400;2022-10-14T02:23:42;15.10;99.90
23697;DHT22;48864;50.820;4.400;2022-10-14T02:26:10;15.10;99.90
23697;DHT22;48864;50.820;4.400;2022-10-14T02:28:36;15.20;99.90
23697;DHT22;48864;50.820;4.400;2022-10-14T02:31:07;15.20;99.90
23697;DHT22;48864;50.820;4.400;2022-10-14T02:33:39;15.40;99.90
23697;DHT22;48864;50.820;4.400;2022-10-14T02:36:07;15.50;99.90
23697;DHT22;48864;50.820;4.400;2022-10-14T02:38:34;15.40;99.90
23697;DHT22;48864;50.820;4.400;2022-10-14T02:41:04;15.40;99.90
23697;DHT22;48864;50.820;4.400;2022-10-14T02:43:30;15.30;99.90
23697;DHT22;48864;50.820;4.400;2022-10-14T02:45:57;15.30;99.90
23697;DHT22;48864;50.820;4.400;2022-10-14T02:48:24;15.20;99.90
23697;DHT22;48864;50.820;4.400;2022-10-14T02:50:50;15.30;99.90
23697;DHT22;48864;50.820;4.400;2022-10-14T02:53:16;15.30;99.90
23697;DHT22;48864;50.820;4.400;2022-10-14T02:55:41;15.20;99.90
23697;DHT22;48864;50.820;4.400;2022-10-14T02:58:07;15.30;99.90
23697;DHT22;48864;50.820;4.400;2022-10-14T03:00:33;15.30;99.90
23697;DHT22;48864;50.820;4.400;2022-10-14T03:02:58;15.20;99.90
23697;DHT22;48864;50.820;4.400;2022-10-14T03:05:24;15.10;99.90
23697;DHT22;48864;50.820;4.400;2022-10-14T03:07:50;15.00;99.90
23697;DHT22;48864;50.820;4.400;2022-10-14T03:10:16;15.00;99.90
23697;DHT22;48864;50.820;4.400;2022-10-14T03:12:41;15.20;99.90
23697;DHT22;48864;50.820;4.400;2022-10-14T03:15:07;15.40;99.90
23697;DHT22;48864;50.820;4.400;2022-10-14T03:17:33;15.40;99.90
23697;DHT22;48864;50.820;4.400;2022-10-14T03:20:05;15.50;99.90
23697;DHT22;48864;50.820;4.400;2022-10-14T03:22:31;15.50;99.90
23697;DHT22;48864;50.820;4.400;2022-10-14T03:24:56;15.50;99.90
23697;DHT22;48864;50.820;4.400;2022-10-14T03:27:22;15.30;99.90
23697;DHT22;48864;50.820;4.400;2022-10-14T03:29:47;15.20;99.90
23697;DHT22;48864;50.820;4.400;2022-10-14T03:32:13;14.90;99.90
23697;DHT22;48864;50.820;4.400;2022-10-14T03:34:38;14.80;99.90
23697;DHT22;48864;50.820;4.400;2022-10-14T03:37:04;14.90;99.90
23697;DHT22;48864;50.820;4.400;2022-10-14T03:39:30;15.00;99.90
23697;DHT22;48864;50.820;4.400;2022-10-14T03:41:55;15.10;99.90
23697;DHT22;48864;50.820;4.400;2022-10-14T03:44:21;15.00;99.90
23697;DHT22;48864;50.820;4.400;2022-10-14T03:46:47;15.20;99.90
23697;DHT22;48864;50.820;4.400;2022-10-14T03:49:12;15.30;99.90
23697;DHT22;48864;50.820;4.400;2022-10-14T03:51:38;15.20;99.90
23697;DHT22;48864;50.820;4.400;2022-10-14T03:54:04;15.20;99.90
23697;DHT22;48864;50.820;4.400;2022-10-14T03:56:29;15.10;99.90
23697;DHT22;48864;50.820;4.400;2022-10-14T03:58:55;15.30;99.90
23697;DHT22;48864;50.820;4.400;2022-10-14T04:01:20;15.20;99.90
23697;DHT22;48864;50.820;4.400;2022-10-14T04:03:46;15.20;99.90
23697;DHT22;48864;50.820;4.400;2022-10-14T04:06:12;15.20;99.90
23697;DHT22;48864;50.820;4.400;2022-10-14T04:08:39;15.30;99.90
23697;DHT22;48864;50.820;4.400;2022-10-14T04:11:05;15.30;99.90
23697;DHT22;48864;50.820;4.400;2022-10-14T04:13:31;15.20;99.90
23697;DHT22;48864;50.820;4.400;2022-10-14T04:16:10;15.10;99.90
23697;DHT22;48864;50.820;4.400;2022-10-14T04:18:36;15.20;99.90
23697;DHT22;48864;50.820;4.400;2022-10-14T04:21:05;15.10;99.90
23697;DHT22;48864;50.820;4.400;2022-10-14T04:23:31;15.00;99.90
23697;DHT22;48864;50.820;4.400;2022-10-14T04:25:57;15.00;99.90
23697;DHT22;48864;50.820;4.400;2022-10-14T04:28:22;14.90;99.90
23697;DHT22;48864;50.820;4.400;2022-10-14T04:30:48;15.00;99.90
23697;DHT22;48864;50.820;4.400;2022-10-14T04:33:14;15.20;99.90
23697;DHT22;48864;50.820;4.400;2022-10-14T04:35:39;15.10;99.90
23697;DHT22;48864;50.820;4.400;2022-10-14T04:38:05;15.00;99.90
23697;DHT22;48864;50.820;4.400;2022-10-14T04:40:30;15.00;99.90
23697;DHT22;48864;50.820;4.400;2022-10-14T04:43:00;15.10;99.90
23697;DHT22;48864;50.820;4.400;2022-10-14T04:45:27;15.10;99.90
23697;DHT22;48864;50.820;4.400;2022-10-14T04:47:53;15.20;99.90
23697;DHT22;48864;50.820;4.400;2022-10-14T04:50:22;15.20;99.90
23697;DHT22;48864;50.820;4.400;2022-10-14T04:52:48;15.10;99.90
23697;DHT22;48864;50.820;4.400;2022-10-14T04:55:13;15.20;99.90
23697;DHT22;48864;50.820;4.400;2022-10-14T04:57:39;15.30;99.90
23697;DHT22;48864;50.820;4.400;2022-10-14T05:00:08;15.40;99.90
23697;DHT22;48864;50.820;4.400;2022-10-14T05:02:34;15.50;99.90
23697;DHT22;48864;50.820;4.400;2022-10-14T05:04:59;15.60;99.90
23697;DHT22;48864;50.820;4.400;2022-10-14T05:07:25;15.40;99.90
23697;DHT22;48864;50.820;4.400;2022-10-14T05:09:50;15.40;99.90
23697;DHT22;48864;50.820;4.400;2022-10-14T05:12:16;15.40;99.90
23697;DHT22;48864;50.820;4.400;2022-10-14T05:14:42;15.40;99.90
23697;DHT22;48864;50.820;4.400;2022-10-14T05:17:11;15.50;99.90
23697;DHT22;48864;50.820;4.400;2022-10-14T05:19:37;15.40;99.90
23697;DHT22;48864;50.820;4.400;2022-10-14T05:22:02;15.40;99.90
23697;DHT22;48864;50.820;4.400;2022-10-14T05:24:28;15.50;99.90
23697;DHT22;48864;50.820;4.400;2022-10-14T05:26:54;15.40;99.90
23697;DHT22;48864;50.820;4.400;2022-10-14T05:29:22;15.50;99.90
23697;DHT22;48864;50.820;4.400;2022-10-14T05:31:47;15.50;99.90
23697;DHT22;48864;50.820;4.400;2022-10-14T05:34:13;15.50;99.90
23697;DHT22;48864;50.820;4.400;2022-10-14T05:36:38;15.60;99.90
23697;DHT22;48864;50.820;4.400;2022-10-14T05:39:11;15.60;99.90
23697;DHT22;48864;50.820;4.400;2022-10-14T05:41:39;15.60;99.90
23697;DHT22;48864;50.820;4.400;2022-10-14T05:44:09;15.60;99.90
23697;DHT22;48864;50.820;4.400;2022-10-14T05:46:37;15.60;99.90
23697;DHT22;48864;50.820;4.400;2022-10-14T05:49:02;15.60;99.90
23697;DHT22;48864;50.820;4.400;2022-10-14T05:51:31;15.60;99.90
23697;DHT22;48864;50.820;4.400;2022-10-14T05:54:00;15.60;99.90
23697;DHT22;48864;50.820;4.400;2022-10-14T05:56:25;15.70;99.90
23697;DHT22;48864;50.820;4.400;2022-10-14T05:58:53;15.70;99.90
23697;DHT22;48864;50.820;4.400;2022-10-14T06:01:18;15.80;99.90
23697;DHT22;48864;50.820;4.400;2022-10-14T06:03:49;15.90;99.90
23697;DHT22;48864;50.820;4.400;2022-10-14T06:06:17;16.00;99.90
23697;DHT22;48864;50.820;4.400;2022-10-14T06:09:13;15.80;99.90
23697;DHT22;48864;50.820;4.400;2022-10-14T06:11:39;15.60;99.90
23697;DHT22;48864;50.820;4.400;2022-10-14T06:14:05;15.60;99.90
23697;DHT22;48864;50.820;4.400;2022-10-14T06:16:30;15.60;99.90
23697;DHT22;48864;50.820;4.400;2022-10-14T06:18:56;15.60;99.90
23697;DHT22;48864;50.820;4.400;2022-10-14T06:21:22;15.40;99.90
23697;DHT22;48864;50.820;4.400;2022-10-14T06:23:47;15.50;99.90
23697;DHT22;48864;50.820;4.400;2022-10-14T06:26:13;15.70;99.90
23697;DHT22;48864;50.820;4.400;2022-10-14T06:28:50;15.70;99.90
23697;DHT22;48864;50.820;4.400;2022-10-14T06:31:19;15.70;99.90
23697;DHT22;48864;50.820;4.400;2022-10-14T06:33:45;15.70;99.90
23697;DHT22;48864;50.820;4.400;2022-10-14T06:36:10;15.50;99.90
23697;DHT22;48864;50.820;4.400;2022-10-14T06:38:36;15.40;99.90
23697;DHT22;48864;50.820;4.400;2022-10-14T06:41:02;15.40;99.90
23697;DHT22;48864;50.820;4.400;2022-10-14T06:43:55;15.40;99.90
23697;DHT22;48864;50.820;4.400;2022-10-14T06:46:21;15.60;99.90
23697;DHT22;48864;50.820;4.400;2022-10-14T06:48:46;15.50;99.90
23697;DHT22;48864;50.820;4.400;2022-10-14T06:51:12;15.50;99.90
23697;DHT22;48864;50.820;4.400;2022-10-14T06:53:38;15.50;99.90
23697;DHT22;48864;50.820;4.400;2022-10-14T06:56:05;15.50;99.90
23697;DHT22;48864;50.820;4.400;2022-10-14T06:58:32;15.40;99.90
23697;DHT22;48864;50.820;4.400;2022-10-14T07:01:05;15.40;99.90
23697;DHT22;48864;50.820;4.400;2022-10-14T07:03:34;15.40;99.90
23697;DHT22;48864;50.820;4.400;2022-10-14T07:06:06;15.40;99.90
23697;DHT22;48864;50.820;4.400;2022-10-14T07:08:32;15.40;99.90
23697;DHT22;48864;50.820;4.400;2022-10-14T07:10:58;15.50;99.90
23697;DHT22;48864;50.820;4.400;2022-10-14T07:13:23;15.60;99.90
23697;DHT22;48864;50.820;4.400;2022-10-14T07:15:51;15.60;99.90
23697;DHT22;48864;50.820;4.400;2022-10-14T07:18:17;15.60;99.90
23697;DHT22;48864;50.820;4.400;2022-10-14T07:20:43;15.60;99.90
23697;DHT22;48864;50.820;4.400;2022-10-14T07:23:10;15.60;99.90
23697;DHT22;48864;50.820;4.400;2022-10-14T07:25:36;15.60;99.90
23697;DHT22;48864;50.820;4.400;2022-10-14T07:28:02;15.70;99.90
23697;DHT22;48864;50.820;4.400;2022-10-14T07:30:28;15.80;99.90
23697;DHT22;48864;50.820;4.400;2022-10-14T07:32:54;15.90;99.90
23697;DHT22;48864;50.820;4.400;2022-10-14T07:35:37;15.90;99.90
23697;DHT22;48864;50.820;4.400;2022-10-14T07:38:03;15.90;99.90
23697;DHT22;48864;50.820;4.400;2022-10-14T07:40:28;15.70;99.90
23697;DHT22;48864;50.820;4.400;2022-10-14T07:42:58;15.70;99.90
23697;DHT22;48864;50.820;4.400;2022-10-14T07:45:24;15.70;99.90
23697;DHT22;48864;50.820;4.400;2022-10-14T07:47:50;15.70;99.90
23697;DHT22;48864;50.820;4.400;2022-10-14T07:50:16;15.70;99.90
23697;DHT22;48864;50.820;4.400;2022-10-14T07:52:42;15.50;99.90
23697;DHT22;48864;50.820;4.400;2022-10-14T07:55:07;15.40;99.90
23697;DHT22;48864;50.820;4.400;2022-10-14T07:57:33;15.40;99.90
23697;DHT22;48864;50.820;4.400;2022-10-14T07:59:59;15.60;99.90
23697;DHT22;48864;50.820;4.400;2022-10-14T08:02:25;15.50;99.90
23697;DHT22;48864;50.820;4.400;2022-10-14T08:04:52;15.50;99.90
23697;DHT22;48864;50.820;4.400;2022-10-14T08:07:19;15.50;99.90
23697;DHT22;48864;50.820;4.400;2022-10-14T08:09:45;15.60;99.90
23697;DHT22;48864;50.820;4.400;2022-10-14T08:12:13;15.70;99.90
23697;DHT22;48864;50.820;4.400;2022-10-14T08:14:41;15.80;99.90
23697;DHT22;48864;50.820;4.400;2022-10-14T08:17:07;16.00;99.90
23697;DHT22;48864;50.820;4.400;2022-10-14T08:19:32;15.80;99.90
23697;DHT22;48864;50.820;4.400;2022-10-14T08:21:59;15.50;99.90
23697;DHT22;48864;50.820;4.400;2022-10-14T08:24:24;15.40;99.90
23697;DHT22;48864;50.820;4.400;2022-10-14T08:26:52;15.40;99.90
23697;DHT22;48864;50.820;4.400;2022-10-14T08:29:19;15.50;99.90
23697;DHT22;48864;50.820;4.400;2022-10-14T08:32:03;15.40;99.90
23697;DHT22;48864;50.820;4.400;2022-10-14T08:34:39;15.20;99.90
23697;DHT22;48864;50.820;4.400;2022-10-14T08:37:04;15.20;99.90
23697;DHT22;48864;50.820;4.400;2022-10-14T08:39:47;15.20;99.90
23697;DHT22;48864;50.820;4.400;2022-10-14T08:45:00;15.10;99.90
23697;DHT22;48864;50.820;4.400;2022-10-14T08:47:34;15.40;99.90
23697;DHT22;48864;50.820;4.400;2022-10-14T08:53:20;15.40;99.90
23697;DHT22;48864;50.820;4.400;2022-10-14T08:55:59;15.30;99.90
23697;DHT22;48864;50.820;4.400;2022-10-14T08:58:41;15.10;99.90
23697;DHT22;48864;50.820;4.400;2022-10-14T09:01:26;15.20;99.90
23697;DHT22;48864;50.820;4.400;2022-10-14T09:04:03;15.20;99.90
23697;DHT22;48864;50.820;4.400;2022-10-14T09:06:31;15.30;99.90
23697;DHT22;48864;50.820;4.400;2022-10-14T09:10:05;15.20;99.90
23697;DHT22;48864;50.820;4.400;2022-10-14T09:12:01;15.10;99.90
23697;DHT22;48864;50.820;4.400;2022-10-14T09:14:33;15.20;99.90
23697;DHT22;48864;50.820;4.400;2022-10-14T09:17:12;15.20;99.90
23697;DHT22;48864;50.820;4.400;2022-10-14T09:19:51;15.30;99.90
23697;DHT22;48864;50.820;4.400;2022-10-14T09:22:22;15.30;99.90
23697;DHT22;48864;50.820;4.400;2022-10-14T09:24:48;15.30;99.90
23697;DHT22;48864;50.820;4.400;2022-10-14T09:27:21;15.30;99.90
23697;DHT22;48864;50.820;4.400;2022-10-14T09:29:59;15.30;99.90
23697;DHT22;48864;50.820;4.400;2022-10-14T09:32:32;15.40;99.90
23697;DHT22;48864;50.820;4.400;2022-10-14T09:35:00;15.70;99.90
23697;DHT22;48864;50.820;4.400;2022-10-14T09:37:41;15.60;99.90
23697;DHT22;48864;50.820;4.400;2022-10-14T09:40:31;15.60;99.90
23697;DHT22;48864;50.820;4.400;2022-10-14T09:46:04;15.30;99.90
23697;DHT22;48864;50.820;4.400;2022-10-14T09:48:48;15.40;99.90
23697;DHT22;48864;50.820;4.400;2022-10-14T09:53:52;15.50;99.90
23697;DHT22;48864;50.820;4.400;2022-10-14T09:56:36;15.40;99.90
23697;DHT22;48864;50.820;4.400;2022-10-14T09:59:04;15.50;99.90
23697;DHT22;48864;50.820;4.400;2022-10-14T10:01:40;15.50;99.90
23697;DHT22;48864;50.820;4.400;2022-10-14T10:04:35;15.40;99.90
23697;DHT22;48864;50.820;4.400;2022-10-14T10:07:08;15.50;99.90
23697;DHT22;48864;50.820;4.400;2022-10-14T10:09:56;15.30;99.90
23697;DHT22;48864;50.820;4.400;2022-10-14T10:12:26;15.30;99.90
23697;DHT22;48864;50.820;4.400;2022-10-14T10:14:58;15.30;99.90
23697;DHT22;48864;50.820;4.400;2022-10-14T10:17:24;15.40;99.90
23697;DHT22;48864;50.820;4.400;2022-10-14T10:20:26;15.50;99.90
23697;DHT22;48864;50.820;4.400;2022-10-14T10:23:22;15.50;99.90
23697;DHT22;48864;50.820;4.400;2022-10-14T10:25:50;15.30;99.90
23697;DHT22;48864;50.820;4.400;2022-10-14T10:28:25;15.40;99.90
23697;DHT22;48864;50.820;4.400;2022-10-14T10:31:11;15.30;99.90
23697;DHT22;48864;50.820;4.400;2022-10-14T10:33:52;15.20;99.90
23697;DHT22;48864;50.820;4.400;2022-10-14T10:36:50;15.10;99.90
23697;DHT22;48864;50.820;4.400;2022-10-14T10:39:21;15.30;99.90
23697;DHT22;48864;50.820;4.400;2022-10-14T10:42:00;15.20;99.90
23697;DHT22;48864;50.820;4.400;2022-10-14T10:47:29;15.20;99.90
23697;DHT22;48864;50.820;4.400;2022-10-14T10:53:30;15.30;99.90
23697;DHT22;48864;50.820;4.400;2022-10-14T10:56:45;15.30;99.90
23697;DHT22;48864;50.820;4.400;2022-10-14T11:01:55;15.40;99.90
23697;DHT22;48864;50.820;4.400;2022-10-14T11:04:56;15.40;99.90
23697;DHT22;48864;50.820;4.400;2022-10-14T11:16:52;15.30;99.90
23697;DHT22;48864;50.820;4.400;2022-10-14T11:25:08;15.20;99.90
23697;DHT22;48864;50.820;4.400;2022-10-14T11:28:22;15.20;99.90
23697;DHT22;48864;50.820;4.400;2022-10-14T11:30:54;15.20;99.90
23697;DHT22;48864;50.820;4.400;2022-10-14T11:36:06;15.30;99.90
23697;DHT22;48864;50.820;4.400;2022-10-14T11:44:18;15.40;99.90
23697;DHT22;48864;50.820;4.400;2022-10-14T11:46:52;15.50;99.90
23697;DHT22;48864;50.820;4.400;2022-10-14T11:49:25;15.60;99.90
23697;DHT22;48864;50.820;4.400;2022-10-14T11:51:59;15.70;99.90
23697;DHT22;48864;50.820;4.400;2022-10-14T12:00:21;15.70;99.90
23697;DHT22;48864;50.820;4.400;2022-10-14T12:05:46;16.00;99.90
23697;DHT22;48864;50.820;4.400;2022-10-14T12:08:40;16.10;99.90
23697;DHT22;48864;50.820;4.400;2022-10-14T12:13:42;16.20;99.90
23697;DHT22;48864;50.820;4.400;2022-10-14T12:16:15;16.10;99.90
23697;DHT22;48864;50.820;4.400;2022-10-14T12:18:43;16.30;99.90
23697;DHT22;48864;50.820;4.400;2022-10-14T12:26:33;16.50;99.90
23697;DHT22;48864;50.820;4.400;2022-10-14T12:29:03;16.50;99.90
23697;DHT22;48864;50.820;4.400;2022-10-14T12:31:36;16.50;99.90
23697;DHT22;48864;50.820;4.400;2022-10-14T12:36:46;16.70;99.90
23697;DHT22;48864;50.820;4.400;2022-10-14T12:41:54;16.60;99.90
23697;DHT22;48864;50.820;4.400;2022-10-14T12:44:23;16.50;99.90
23697;DHT22;48864;50.820;4.400;2022-10-14T12:47:04;16.60;99.90
23697;DHT22;48864;50.820;4.400;2022-10-14T12:49:32;16.90;99.90
23697;DHT22;48864;50.820;4.400;2022-10-14T12:52:06;16.90;99.90
23697;DHT22;48864;50.820;4.400;2022-10-14T12:54:34;17.00;99.90
23697;DHT22;48864;50.820;4.400;2022-10-14T12:57:22;17.10;99.90
23697;DHT22;48864;50.820;4.400;2022-10-14T12:59:51;17.20;99.90
23697;DHT22;48864;50.820;4.400;2022-10-14T13:02:30;17.20;99.90
23697;DHT22;48864;50.820;4.400;2022-10-14T13:05:02;16.90;99.90
23697;DHT22;48864;50.820;4.400;2022-10-14T13:10:25;17.20;99.90
23697;DHT22;48864;50.820;4.400;2022-10-14T13:12:52;17.10;99.90
23697;DHT22;48864;50.820;4.400;2022-10-14T13:15:47;17.10;99.90
23697;DHT22;48864;50.820;4.400;2022-10-14T13:18:33;17.00;99.90
23697;DHT22;48864;50.820;4.400;2022-10-14T13:20:59;16.90;99.90
23697;DHT22;48864;50.820;4.400;2022-10-14T13:31:45;16.90;99.90
23697;DHT22;48864;50.820;4.400;2022-10-14T13:37:28;16.90;99.90
23697;DHT22;48864;50.820;4.400;2022-10-14T13:39:54;16.80;99.90
23697;DHT22;48864;50.820;4.400;2022-10-14T13:42:32;16.90;99.90
23697;DHT22;48864;50.820;4.400;2022-10-14T13:45:13;17.00;99.90
23697;DHT22;48864;50.820;4.400;2022-10-14T13:47:45;17.10;99.90
23697;DHT22;48864;50.820;4.400;2022-10-14T13:50:26;17.10;99.90
23697;DHT22;48864;50.820;4.400;2022-10-14T13:53:10;17.10;99.90
23697;DHT22;48864;50.820;4.400;2022-10-14T13:55:45;17.20;99.90
23697;DHT22;48864;50.820;4.400;2022-10-14T13:58:16;17.20;99.90
23697;DHT22;48864;50.820;4.400;2022-10-14T14:05:53;17.30;99.90
23697;DHT22;48864;50.820;4.400;2022-10-14T14:08:25;17.20;99.90
23697;DHT22;48864;50.820;4.400;2022-10-14T14:10:57;17.10;99.90
23697;DHT22;48864;50.820;4.400;2022-10-14T14:13:28;17.10;99.90
23697;DHT22;48864;50.820;4.400;2022-10-14T14:16:15;17.20;99.90
23697;DHT22;48864;50.820;4.400;2022-10-14T14:18:46;17.10;99.90
23697;DHT22;48864;50.820;4.400;2022-10-14T14:21:12;17.30;99.90
23697;DHT22;48864;50.820;4.400;2022-10-14T14:23:49;17.10;99.90
23697;DHT22;48864;50.820;4.400;2022-10-14T14:26:15;17.00;99.90
23697;DHT22;48864;50.820;4.400;2022-10-14T14:28:45;17.00;99.90
23697;DHT22;48864;50.820;4.400;2022-10-14T14:31:17;16.90;99.90
23697;DHT22;48864;50.820;4.400;2022-10-14T14:33:44;17.10;99.90
23697;DHT22;48864;50.820;4.400;2022-10-14T14:36:14;17.10;99.90
23697;DHT22;48864;50.820;4.400;2022-10-14T14:39:01;17.00;99.90
23697;DHT22;48864;50.820;4.400;2022-10-14T14:41:29;17.10;99.90
23697;DHT22;48864;50.820;4.400;2022-10-14T14:44:03;17.00;99.90
23697;DHT22;48864;50.820;4.400;2022-10-14T14:46:37;17.00;99.90
23697;DHT22;48864;50.820;4.400;2022-10-14T14:49:05;17.10;99.90
23697;DHT22;48864;50.820;4.400;2022-10-14T14:51:36;17.10;99.90
23697;DHT22;48864;50.820;4.400;2022-10-14T14:54:04;16.90;99.90
23697;DHT22;48864;50.820;4.400;2022-10-14T14:56:36;16.90;99.90
23697;DHT22;48864;50.820;4.400;2022-10-14T15:02:00;17.00;99.90
23697;DHT22;48864;50.820;4.400;2022-10-14T15:04:31;17.10;99.90
23697;DHT22;48864;50.820;4.400;2022-10-14T15:07:00;17.20;99.90
23697;DHT22;48864;50.820;4.400;2022-10-14T15:09:53;17.20;99.90
23697;DHT22;48864;50.820;4.400;2022-10-14T15:12:28;17.10;99.90
23697;DHT22;48864;50.820;4.400;2022-10-14T15:15:03;17.00;99.90
23697;DHT22;48864;50.820;4.400;2022-10-14T15:22:38;17.00;99.90
23697;DHT22;48864;50.820;4.400;2022-10-14T15:27:46;16.80;99.90
23697;DHT22;48864;50.820;4.400;2022-10-14T15:33:15;16.70;99.90
23697;DHT22;48864;50.820;4.400;2022-10-14T15:36:05;16.80;99.90
23697;DHT22;48864;50.820;4.400;2022-10-14T15:38:30;16.70;99.90
23697;DHT22;48864;50.820;4.400;2022-10-14T15:40:56;16.80;99.90
23697;DHT22;48864;50.820;4.400;2022-10-14T15:43:26;16.80;99.90
23697;DHT22;48864;50.820;4.400;2022-10-14T15:45:53;16.90;99.90
23697;DHT22;48864;50.820;4.400;2022-10-14T15:48:40;16.90;99.90
23697;DHT22;48864;50.820;4.400;2022-10-14T15:51:14;16.90;99.90
23697;DHT22;48864;50.820;4.400;2022-10-14T15:53:41;16.90;99.90
23697;DHT22;48864;50.820;4.400;2022-10-14T15:56:10;16.80;99.90
23697;DHT22;48864;50.820;4.400;2022-10-14T15:58:35;16.70;99.90
23697;DHT22;48864;50.820;4.400;2022-10-14T16:01:02;16.70;99.90
23697;DHT22;48864;50.820;4.400;2022-10-14T16:03:31;16.90;99.90
23697;DHT22;48864;50.820;4.400;2022-10-14T16:05:57;16.80;99.90
23697;DHT22;48864;50.820;4.400;2022-10-14T16:08:24;17.00;99.90
23697;DHT22;48864;50.820;4.400;2022-10-14T16:10:53;17.00;99.90
23697;DHT22;48864;50.820;4.400;2022-10-14T16:13:19;16.90;99.90
23697;DHT22;48864;50.820;4.400;2022-10-14T16:16:12;17.00;99.90
23697;DHT22;48864;50.820;4.400;2022-10-14T16:18:38;17.00;99.90
23697;DHT22;48864;50.820;4.400;2022-10-14T16:21:07;17.00;99.90
23697;DHT22;48864;50.820;4.400;2022-10-14T16:23:33;16.80;99.90
23697;DHT22;48864;50.820;4.400;2022-10-14T16:26:01;16.80;99.90
23697;DHT22;48864;50.820;4.400;2022-10-14T16:28:27;17.00;99.90
23697;DHT22;48864;50.820;4.400;2022-10-14T16:30:52;17.10;99.90
23697;DHT22;48864;50.820;4.400;2022-10-14T16:33:19;17.20;99.90
23697;DHT22;48864;50.820;4.400;2022-10-14T16:35:56;17.10;99.90
23697;DHT22;48864;50.820;4.400;2022-10-14T16:38:24;17.00;99.90
23697;DHT22;48864;50.820;4.400;2022-10-14T16:41:00;17.10;99.90
23697;DHT22;48864;50.820;4.400;2022-10-14T16:43:27;17.00;99.90
23697;DHT22;48864;50.820;4.400;2022-10-14T16:45:59;17.00;99.90
23697;DHT22;48864;50.820;4.400;2022-10-14T16:48:25;17.00;99.90
23697;DHT22;48864;50.820;4.400;2022-10-14T16:50:53;17.00;99.90
23697;DHT22;48864;50.820;4.400;2022-10-14T16:53:20;17.10;99.90
23697;DHT22;48864;50.820;4.400;2022-10-14T16:56:23;17.20;99.90
23697;DHT22;48864;50.820;4.400;2022-10-14T16:59:10;17.30;99.90
23697;DHT22;48864;50.820;4.400;2022-10-14T17:01:37;17.30;99.90
23697;DHT22;48864;50.820;4.400;2022-10-14T17:04:05;17.30;99.90
23697;DHT22;48864;50.820;4.400;2022-10-14T17:06:30;17.30;99.90
23697;DHT22;48864;50.820;4.400;2022-10-14T17:08:56;17.20;99.90
23697;DHT22;48864;50.820;4.400;2022-10-14T17:11:30;17.30;99.90
23697;DHT22;48864;50.820;4.400;2022-10-14T17:13:57;17.20;99.90
23697;DHT22;48864;50.820;4.400;2022-10-14T17:16:24;16.80;99.90
23697;DHT22;48864;50.820;4.400;2022-10-14T17:18:51;16.80;99.90
23697;DHT22;48864;50.820;4.400;2022-10-14T17:21:17;16.90;99.90
23697;DHT22;48864;50.820;4.400;2022-10-14T17:23:44;16.80;99.90
23697;DHT22;48864;50.820;4.400;2022-10-14T17:26:12;16.90;99.90
23697;DHT22;48864;50.820;4.400;2022-10-14T17:28:41;16.90;99.90
23697;DHT22;48864;50.820;4.400;2022-10-14T17:31:14;16.90;99.90
23697;DHT22;48864;50.820;4.400;2022-10-14T17:33:40;17.00;99.90
23697;DHT22;48864;50.820;4.400;2022-10-14T17:36:30;16.90;99.90
23697;DHT22;48864;50.820;4.400;2022-10-14T17:38:58;16.80;99.90
23697;DHT22;48864;50.820;4.400;2022-10-14T17:41:25;16.80;99.90
23697;DHT22;48864;50.820;4.400;2022-10-14T17:43:54;16.90;99.90
23697;DHT22;48864;50.820;4.400;2022-10-14T17:46:22;16.90;99.90
23697;DHT22;48864;50.820;4.400;2022-10-14T17:48:53;16.90;99.90
23697;DHT22;48864;50.820;4.400;2022-10-14T17:51:20;17.00;99.90
23697;DHT22;48864;50.820;4.400;2022-10-14T17:54:09;17.00;99.90
23697;DHT22;48864;50.820;4.400;2022-10-14T17:56:38;17.10;99.90
23697;DHT22;48864;50.820;4.400;2022-10-14T17:59:09;17.20;99.90